sensor_id;sensor_type;location;lat;lon;timestamp;temperature;humidity
37281;DHT22;23169;41.804;12.596;2022-12-11T00:00:22;13.10;99.90
37281;DHT22;23169;41.804;12.596;2022-12-11T00:02:49;13.00;99.90
37281;DHT22;23169;41.804;12.596;2022-12-11T00:05:17;13.00;99.90
37281;DHT22;23169;41.804;12.596;2022-12-11T00:07:44;13.00;99.90
37281;DHT22;23169;41.804;12.596;2022-12-11T00:10:12;13.00;99.90
37281;DHT22;23169;41.804;12.596;2022-12-11T00:12:39;12.90;99.90
37281;DHT22;23169;41.804;12.596;2022-12-11T00:15:07;12.80;16.20
37281;DHT22;23169;41.804;12.596;2022-12-11T00:17:34;12.80;1.00
37281;DHT22;23169;41.804;12.596;2022-12-11T00:20:02;12.90;99.90
37281;DHT22;23169;41.804;12.596;2022-12-11T00:22:29;12.80;99.90
37281;DHT22;23169;41.804;12.596;2022-12-11T00:24:56;12.80;1.00
37281;DHT22;23169;41.804;12.596;2022-12-11T00:27:24;12.90;99.90
37281;DHT22;23169;41.804;12.596;2022-12-11T00:29:51;12.90;99.90
37281;DHT22;23169;41.804;12.596;2022-12-11T00:32:19;12.90;99.90
37281;DHT22;23169;41.804;12.596;2022-12-11T00:34:46;12.80;99.90
37281;DHT22;23169;41.804;12.596;2022-12-11T00:37:13;12.70;99.90
37281;DHT22;23169;41.804;12.596;2022-12-11T00:39:41;12.50;99.90
37281;DHT22;23169;41.804;12.596;2022-12-11T00:42:08;12.30;99.90
37281;DHT22;23169;41.804;12.596;2022-12-11T00:44:36;12.20;1.00
37281;DHT22;23169;41.804;12.596;2022-12-11T00:47:04;12.20;99.90
37281;DHT22;23169;41.804;12.596;2022-12-11T00:49:31;12.20;83.20
37281;DHT22;23169;41.804;12.596;2022-12-11T00:51:58;12.30;99.90
37281;DHT22;23169;41.804;12.596;2022-12-11T00:54:26;12.40;99.90
37281;DHT22;23169;41.804;12.596;2022-12-11T00:56:54;12.50;99.90
37281;DHT22;23169;41.804;12.596;2022-12-11T00:59:22;12.60;99.90
37281;DHT22;23169;41.804;12.596;2022-12-11T01:01:49;12.70;1.00
37281;DHT22;23169;41.804;12.596;2022-12-11T01:04:16;12.70;1.00
37281;DHT22;23169;41.804;12.596;2022-12-11T01:06:46;12.80;93.70
37281;DHT22;23169;41.804;12.596;2022-12-11T01:09:13;12.80;99.90
37281;DHT22;23169;41.804;12.596;2022-12-11T01:11:59;12.90;99.90
37281;DHT22;23169;41.804;12.596;2022-12-11T01:14:27;12.90;99.90
37281;DHT22;23169;41.804;12.596;2022-12-11T01:16:57;13.00;1.00
37281;DHT22;23169;41.804;12.596;2022-12-11T01:19:24;13.00;91.60
37281;DHT22;23169;41.804;12.596;2022-12-11T01:21:51;13.00;99.90
37281;DHT22;23169;41.804;12.596;2022-12-11T01:24:19;13.00;57.40
37281;DHT22;23169;41.804;12.596;2022-12-11T01:26:46;13.00;99.90
37281;DHT22;23169;41.804;12.596;2022-12-11T01:29:14;13.00;99.90
37281;DHT22;23169;41.804;12.596;2022-12-11T01:31:41;13.00;99.90
37281;DHT22;23169;41.804;12.596;2022-12-11T01:34:09;13.00;99.90
37281;DHT22;23169;41.804;12.596;2022-12-11T01:36:36;13.00;1.00
37281;DHT22;23169;41.804;12.596;2022-12-11T01:39:04;12.80;1.00
37281;DHT22;23169;41.804;12.596;2022-12-11T01:41:31;12.70;36.90
37281;DHT22;23169;41.804;12.596;2022-12-11T01:46:27;12.50;1.00
37281;DHT22;23169;41.804;12.596;2022-12-11T01:48:55;12.40;1.00
37281;DHT22;23169;41.804;12.596;2022-12-11T01:51:22;12.40;99.90
37281;DHT22;23169;41.804;12.596;2022-12-11T01:53:52;12.40;1.00
37281;DHT22;23169;41.804;12.596;2022-12-11T01:56:20;12.50;1.00
37281;DHT22;23169;41.804;12.596;2022-12-11T01:58:49;12.40;99.90
37281;DHT22;23169;41.804;12.596;2022-12-11T02:01:20;12.50;1.00
37281;DHT22;23169;41.804;12.596;2022-12-11T02:03:48;12.50;1.00
37281;DHT22;23169;41.804;12.596;2022-12-11T02:09:22;12.50;99.90
37281;DHT22;23169;41.804;12.596;2022-12-11T02:17:03;12.50;99.90
37281;DHT22;23169;41.804;12.596;2022-12-11T02:22:06;12.50;1.00
37281;DHT22;23169;41.804;12.596;2022-12-11T02:32:31;12.00;99.90
37281;DHT22;23169;41.804;12.596;2022-12-11T02:37:37;11.90;99.90
37281;DHT22;23169;41.804;12.596;2022-12-11T02:40:08;12.00;99.90
37281;DHT22;23169;41.804;12.596;2022-12-11T02:42:37;12.10;99.90
37281;DHT22;23169;41.804;12.596;2022-12-11T02:45:07;12.20;1.00
37281;DHT22;23169;41.804;12.596;2022-12-11T02:47:35;12.20;1.00
37281;DHT22;23169;41.804;12.596;2022-12-11T02:50:05;12.20;1.00
37281;DHT22;23169;41.804;12.596;2022-12-11T02:52:34;12.20;1.00
37281;DHT22;23169;41.804;12.596;2022-12-11T02:55:02;12.30;99.90
37281;DHT22;23169;41.804;12.596;2022-12-11T02:57:35;12.20;99.90
37281;DHT22;23169;41.804;12.596;2022-12-11T03:00:04;12.20;99.90
37281;DHT22;23169;41.804;12.596;2022-12-11T03:02:33;12.20;99.90
37281;DHT22;23169;41.804;12.596;2022-12-11T03:05:01;12.20;1.00
37281;DHT22;23169;41.804;12.596;2022-12-11T03:07:30;12.20;99.90
37281;DHT22;23169;41.804;12.596;2022-12-11T03:09:59;12.20;99.90
37281;DHT22;23169;41.804;12.596;2022-12-11T03:12:28;12.20;99.90
37281;DHT22;23169;41.804;12.596;2022-12-11T03:14:58;12.10;99.90
37281;DHT22;23169;41.804;12.596;2022-12-11T03:17:34;12.10;99.90
37281;DHT22;23169;41.804;12.596;2022-12-11T03:20:11;12.00;1.00
37281;DHT22;23169;41.804;12.596;2022-12-11T03:22:55;12.00;24.50
37281;DHT22;23169;41.804;12.596;2022-12-11T03:25:35;11.90;99.90
37281;DHT22;23169;41.804;12.596;2022-12-11T03:28:08;11.90;1.00
37281;DHT22;23169;41.804;12.596;2022-12-11T03:30:37;11.90;1.00
37281;DHT22;23169;41.804;12.596;2022-12-11T03:33:13;11.90;97.70
37281;DHT22;23169;41.804;12.596;2022-12-11T03:35:47;11.90;99.90
37281;DHT22;23169;41.804;12.596;2022-12-11T03:38:27;11.90;1.00
37281;DHT22;23169;41.804;12.596;2022-12-11T03:40:57;11.80;63.00
37281;DHT22;23169;41.804;12.596;2022-12-11T03:43:27;11.80;99.90
37281;DHT22;23169;41.804;12.596;2022-12-11T03:45:55;11.80;99.90
37281;DHT22;23169;41.804;12.596;2022-12-11T03:48:24;11.80;99.90
37281;DHT22;23169;41.804;12.596;2022-12-11T03:50:53;11.80;1.00
37281;DHT22;23169;41.804;12.596;2022-12-11T03:53:20;11.80;99.90
37281;DHT22;23169;41.804;12.596;2022-12-11T03:55:48;11.70;99.90
37281;DHT22;23169;41.804;12.596;2022-12-11T03:58:17;11.80;99.90
37281;DHT22;23169;41.804;12.596;2022-12-11T04:00:45;11.70;99.90
37281;DHT22;23169;41.804;12.596;2022-12-11T04:03:12;11.70;99.90
37281;DHT22;23169;41.804;12.596;2022-12-11T04:05:44;11.70;99.90
37281;DHT22;23169;41.804;12.596;2022-12-11T04:08:12;11.80;99.90
37281;DHT22;23169;41.804;12.596;2022-12-11T04:10:39;11.80;99.90
37281;DHT22;23169;41.804;12.596;2022-12-11T04:13:07;11.80;1.00
37281;DHT22;23169;41.804;12.596;2022-12-11T04:15:35;11.80;1.00
37281;DHT22;23169;41.804;12.596;2022-12-11T04:18:03;11.80;1.00
37281;DHT22;23169;41.804;12.596;2022-12-11T04:20:52;11.80;1.00
37281;DHT22;23169;41.804;12.596;2022-12-11T04:23:38;11.80;1.00
37281;DHT22;23169;41.804;12.596;2022-12-11T04:26:24;11.70;99.90
37281;DHT22;23169;41.804;12.596;2022-12-11T04:28:52;11.70;99.90
37281;DHT22;23169;41.804;12.596;2022-12-11T04:31:20;11.80;99.90
37281;DHT22;23169;41.804;12.596;2022-12-11T04:33:48;11.80;69.10
37281;DHT22;23169;41.804;12.596;2022-12-11T04:36:15;11.80;1.00
37281;DHT22;23169;41.804;12.596;2022-12-11T04:38:43;11.80;1.00
37281;DHT22;23169;41.804;12.596;2022-12-11T04:41:12;11.80;99.90
37281;DHT22;23169;41.804;12.596;2022-12-11T04:43:40;11.80;99.90
37281;DHT22;23169;41.804;12.596;2022-12-11T04:46:09;11.80;1.00
37281;DHT22;23169;41.804;12.596;2022-12-11T04:48:37;11.80;1.00
37281;DHT22;23169;41.804;12.596;2022-12-11T04:51:06;11.80;99.90
37281;DHT22;23169;41.804;12.596;2022-12-11T04:53:33;11.90;6.60
37281;DHT22;23169;41.804;12.596;2022-12-11T04:56:00;11.90;1.00
37281;DHT22;23169;41.804;12.596;2022-12-11T04:58:31;11.90;99.90
37281;DHT22;23169;41.804;12.596;2022-12-11T05:00:58;11.90;99.90
37281;DHT22;23169;41.804;12.596;2022-12-11T05:03:25;11.80;99.90
37281;DHT22;23169;41.804;12.596;2022-12-11T05:05:52;11.80;99.90
37281;DHT22;23169;41.804;12.596;2022-12-11T05:08:21;11.80;99.90
37281;DHT22;23169;41.804;12.596;2022-12-11T05:10:58;11.80;99.90
37281;DHT22;23169;41.804;12.596;2022-12-11T05:13:26;11.80;99.90
37281;DHT22;23169;41.804;12.596;2022-12-11T05:15:53;11.70;99.90
37281;DHT22;23169;41.804;12.596;2022-12-11T05:18:21;11.60;1.00
37281;DHT22;23169;41.804;12.596;2022-12-11T05:20:55;11.60;1.00
37281;DHT22;23169;41.804;12.596;2022-12-11T05:23:22;11.70;1.00
37281;DHT22;23169;41.804;12.596;2022-12-11T05:25:53;11.70;1.00
37281;DHT22;23169;41.804;12.596;2022-12-11T05:28:21;11.70;99.90
37281;DHT22;23169;41.804;12.596;2022-12-11T05:31:00;11.70;96.30
37281;DHT22;23169;41.804;12.596;2022-12-11T05:33:28;11.70;27.50
37281;DHT22;23169;41.804;12.596;2022-12-11T05:35:56;11.70;1.00
37281;DHT22;23169;41.804;12.596;2022-12-11T05:38:23;12.80;99.90
37281;DHT22;23169;41.804;12.596;2022-12-11T05:40:57;11.80;99.90
37281;DHT22;23169;41.804;12.596;2022-12-11T05:43:25;11.80;77.10
37281;DHT22;23169;41.804;12.596;2022-12-11T05:45:53;11.80;17.20
37281;DHT22;23169;41.804;12.596;2022-12-11T05:48:20;11.80;1.00
37281;DHT22;23169;41.804;12.596;2022-12-11T05:50:57;11.90;1.00
37281;DHT22;23169;41.804;12.596;2022-12-11T05:53:24;12.00;99.90
37281;DHT22;23169;41.804;12.596;2022-12-11T05:55:52;12.00;99.90
37281;DHT22;23169;41.804;12.596;2022-12-11T05:58:19;12.00;99.90
37281;DHT22;23169;41.804;12.596;2022-12-11T06:00:47;12.00;99.90
37281;DHT22;23169;41.804;12.596;2022-12-11T06:03:14;11.70;99.90
37281;DHT22;23169;41.804;12.596;2022-12-11T06:05:42;11.50;99.90
37281;DHT22;23169;41.804;12.596;2022-12-11T06:08:09;11.40;99.90
37281;DHT22;23169;41.804;12.596;2022-12-11T06:10:36;11.30;74.70
37281;DHT22;23169;41.804;12.596;2022-12-11T06:13:04;11.40;99.90
37281;DHT22;23169;41.804;12.596;2022-12-11T06:15:31;11.50;99.90
37281;DHT22;23169;41.804;12.596;2022-12-11T06:17:58;11.50;99.90
37281;DHT22;23169;41.804;12.596;2022-12-11T06:20:26;11.40;1.00
37281;DHT22;23169;41.804;12.596;2022-12-11T06:22:53;11.40;1.00
37281;DHT22;23169;41.804;12.596;2022-12-11T06:25:20;11.50;1.00
37281;DHT22;23169;41.804;12.596;2022-12-11T06:27:47;11.50;1.00
37281;DHT22;23169;41.804;12.596;2022-12-11T06:30:14;11.50;99.90
37281;DHT22;23169;41.804;12.596;2022-12-11T06:32:42;11.50;99.90
37281;DHT22;23169;41.804;12.596;2022-12-11T06:35:10;11.60;51.90
37281;DHT22;23169;41.804;12.596;2022-12-11T06:37:37;11.60;1.00
37281;DHT22;23169;41.804;12.596;2022-12-11T06:40:05;11.60;99.90
37281;DHT22;23169;41.804;12.596;2022-12-11T06:42:33;11.70;99.90
37281;DHT22;23169;41.804;12.596;2022-12-11T06:45:00;11.70;16.70
37281;DHT22;23169;41.804;12.596;2022-12-11T06:47:28;11.70;17.30
37281;DHT22;23169;41.804;12.596;2022-12-11T06:49:56;11.70;99.90
37281;DHT22;23169;41.804;12.596;2022-12-11T06:52:23;11.70;99.90
37281;DHT22;23169;41.804;12.596;2022-12-11T06:54:51;11.70;99.90
37281;DHT22;23169;41.804;12.596;2022-12-11T06:57:19;11.70;99.90
37281;DHT22;23169;41.804;12.596;2022-12-11T06:59:46;11.70;99.90
37281;DHT22;23169;41.804;12.596;2022-12-11T07:02:14;11.70;99.90
37281;DHT22;23169;41.804;12.596;2022-12-11T07:04:42;11.70;1.00
37281;DHT22;23169;41.804;12.596;2022-12-11T07:07:09;11.70;1.00
37281;DHT22;23169;41.804;12.596;2022-12-11T07:09:38;11.70;1.00
37281;DHT22;23169;41.804;12.596;2022-12-11T07:12:05;11.80;1.00
37281;DHT22;23169;41.804;12.596;2022-12-11T07:14:33;11.70;1.00
37281;DHT22;23169;41.804;12.596;2022-12-11T07:17:00;11.70;99.90
37281;DHT22;23169;41.804;12.596;2022-12-11T07:19:28;11.60;1.00
37281;DHT22;23169;41.804;12.596;2022-12-11T07:21:55;11.60;99.90
37281;DHT22;23169;41.804;12.596;2022-12-11T07:24:22;11.60;99.90
37281;DHT22;23169;41.804;12.596;2022-12-11T07:26:50;11.70;99.90
37281;DHT22;23169;41.804;12.596;2022-12-11T07:29:17;11.70;99.90
37281;DHT22;23169;41.804;12.596;2022-12-11T07:31:45;11.70;99.90
37281;DHT22;23169;41.804;12.596;2022-12-11T07:34:12;11.70;99.90
37281;DHT22;23169;41.804;12.596;2022-12-11T07:36:41;11.70;99.90
37281;DHT22;23169;41.804;12.596;2022-12-11T07:39:09;11.70;99.90
37281;DHT22;23169;41.804;12.596;2022-12-11T07:41:37;11.70;99.90
37281;DHT22;23169;41.804;12.596;2022-12-11T07:44:04;11.60;99.90
37281;DHT22;23169;41.804;12.596;2022-12-11T07:46:33;11.60;99.90
37281;DHT22;23169;41.804;12.596;2022-12-11T07:49:00;11.60;99.90
37281;DHT22;23169;41.804;12.596;2022-12-11T07:51:29;11.60;89.70
37281;DHT22;23169;41.804;12.596;2022-12-11T07:53:58;11.60;74.50
37281;DHT22;23169;41.804;12.596;2022-12-11T07:56:26;11.60;59.20
37281;DHT22;23169;41.804;12.596;2022-12-11T07:58:54;11.60;79.00
37281;DHT22;23169;41.804;12.596;2022-12-11T08:01:22;11.60;99.90
37281;DHT22;23169;41.804;12.596;2022-12-11T08:03:50;11.60;99.90
37281;DHT22;23169;41.804;12.596;2022-12-11T08:06:17;11.60;99.90
37281;DHT22;23169;41.804;12.596;2022-12-11T08:08:46;11.70;99.40
37281;DHT22;23169;41.804;12.596;2022-12-11T08:11:13;11.70;89.80
37281;DHT22;23169;41.804;12.596;2022-12-11T08:13:41;11.70;82.10
37281;DHT22;23169;41.804;12.596;2022-12-11T08:16:10;11.70;55.00
37281;DHT22;23169;41.804;12.596;2022-12-11T08:18:39;11.60;69.20
37281;DHT22;23169;41.804;12.596;2022-12-11T08:23:34;11.50;82.10
37281;DHT22;23169;41.804;12.596;2022-12-11T08:26:02;11.60;86.80
37281;DHT22;23169;41.804;12.596;2022-12-11T08:28:31;11.60;26.30
37281;DHT22;23169;41.804;12.596;2022-12-11T08:30:58;11.60;9.60
37281;DHT22;23169;41.804;12.596;2022-12-11T08:33:25;11.70;14.30
37281;DHT22;23169;41.804;12.596;2022-12-11T08:35:53;11.80;1.00
37281;DHT22;23169;41.804;12.596;2022-12-11T08:38:20;11.90;1.00
37281;DHT22;23169;41.804;12.596;2022-12-11T08:40:47;11.90;1.00
37281;DHT22;23169;41.804;12.596;2022-12-11T08:43:15;12.00;1.00
37281;DHT22;23169;41.804;12.596;2022-12-11T08:45:42;12.00;1.00
37281;DHT22;23169;41.804;12.596;2022-12-11T08:48:09;12.10;1.00
37281;DHT22;23169;41.804;12.596;2022-12-11T08:50:37;12.10;1.00
37281;DHT22;23169;41.804;12.596;2022-12-11T08:53:04;12.10;1.00
37281;DHT22;23169;41.804;12.596;2022-12-11T08:55:32;12.30;1.00
37281;DHT22;23169;41.804;12.596;2022-12-11T08:58:00;12.30;1.00
37281;DHT22;23169;41.804;12.596;2022-12-11T09:00:27;12.40;1.00
37281;DHT22;23169;41.804;12.596;2022-12-11T09:02:55;12.50;1.00
37281;DHT22;23169;41.804;12.596;2022-12-11T09:05:22;12.60;1.00
37281;DHT22;23169;41.804;12.596;2022-12-11T09:07:49;12.80;1.00
37281;DHT22;23169;41.804;12.596;2022-12-11T09:10:16;12.70;1.00
37281;DHT22;23169;41.804;12.596;2022-12-11T09:12:44;12.60;1.00
37281;DHT22;23169;41.804;12.596;2022-12-11T09:15:11;12.70;1.00
37281;DHT22;23169;41.804;12.596;2022-12-11T09:17:39;12.60;1.00
37281;DHT22;23169;41.804;12.596;2022-12-11T09:20:07;12.70;1.00
37281;DHT22;23169;41.804;12.596;2022-12-11T09:22:34;12.80;1.00
37281;DHT22;23169;41.804;12.596;2022-12-11T09:25:02;12.90;1.00
37281;DHT22;23169;41.804;12.596;2022-12-11T09:27:29;13.00;1.00
37281;DHT22;23169;41.804;12.596;2022-12-11T09:29:56;13.00;1.00
37281;DHT22;23169;41.804;12.596;2022-12-11T09:32:24;13.20;1.00
37281;DHT22;23169;41.804;12.596;2022-12-11T09:34:51;13.20;99.90
37281;DHT22;23169;41.804;12.596;2022-12-11T09:37:18;13.10;99.90
37281;DHT22;23169;41.804;12.596;2022-12-11T09:39:46;13.00;99.90
37281;DHT22;23169;41.804;12.596;2022-12-11T09:42:18;13.00;99.90
37281;DHT22;23169;41.804;12.596;2022-12-11T09:44:52;12.90;99.90
37281;DHT22;23169;41.804;12.596;2022-12-11T09:47:30;12.90;99.90
37281;DHT22;23169;41.804;12.596;2022-12-11T09:55:14;13.00;99.90
37281;DHT22;23169;41.804;12.596;2022-12-11T10:08:29;13.60;99.90
37281;DHT22;23169;41.804;12.596;2022-12-11T10:18:53;13.60;99.90
37281;DHT22;23169;41.804;12.596;2022-12-11T10:21:21;13.50;99.90
37281;DHT22;23169;41.804;12.596;2022-12-11T10:23:56;13.60;99.90
37281;DHT22;23169;41.804;12.596;2022-12-11T10:26:26;13.60;99.90
37281;DHT22;23169;41.804;12.596;2022-12-11T10:28:56;13.50;99.90
37281;DHT22;23169;41.804;12.596;2022-12-11T10:31:37;13.60;99.90
37281;DHT22;23169;41.804;12.596;2022-12-11T10:34:11;13.80;99.90
37281;DHT22;23169;41.804;12.596;2022-12-11T10:36:40;13.90;99.90
37281;DHT22;23169;41.804;12.596;2022-12-11T10:39:17;13.90;99.90
37281;DHT22;23169;41.804;12.596;2022-12-11T10:41:45;13.80;99.90
37281;DHT22;23169;41.804;12.596;2022-12-11T10:44:53;13.80;99.90
37281;DHT22;23169;41.804;12.596;2022-12-11T10:47:13;13.70;99.90
37281;DHT22;23169;41.804;12.596;2022-12-11T10:49:52;13.50;99.90
37281;DHT22;23169;41.804;12.596;2022-12-11T10:52:21;13.30;99.90
37281;DHT22;23169;41.804;12.596;2022-12-11T10:55:16;13.30;99.90
37281;DHT22;23169;41.804;12.596;2022-12-11T10:57:39;13.30;99.90
37281;DHT22;23169;41.804;12.596;2022-12-11T11:00:07;13.30;99.90
37281;DHT22;23169;41.804;12.596;2022-12-11T11:02:36;13.30;99.90
37281;DHT22;23169;41.804;12.596;2022-12-11T11:05:14;13.40;99.90
37281;DHT22;23169;41.804;12.596;2022-12-11T11:07:43;13.40;99.90
37281;DHT22;23169;41.804;12.596;2022-12-11T11:12:39;13.60;99.90
37281;DHT22;23169;41.804;12.596;2022-12-11T11:15:09;13.70;99.90
37281;DHT22;23169;41.804;12.596;2022-12-11T11:17:45;13.80;99.90
37281;DHT22;23169;41.804;12.596;2022-12-11T11:20:14;13.70;99.90
37281;DHT22;23169;41.804;12.596;2022-12-11T11:22:44;13.80;99.90
37281;DHT22;23169;41.804;12.596;2022-12-11T11:25:19;13.80;99.90
37281;DHT22;23169;41.804;12.596;2022-12-11T11:30:19;13.60;99.90
37281;DHT22;23169;41.804;12.596;2022-12-11T11:32:47;13.50;99.90
37281;DHT22;23169;41.804;12.596;2022-12-11T11:35:17;13.50;99.90
37281;DHT22;23169;41.804;12.596;2022-12-11T11:37:46;13.70;99.90
37281;DHT22;23169;41.804;12.596;2022-12-11T11:40:27;13.60;99.90
37281;DHT22;23169;41.804;12.596;2022-12-11T11:42:56;13.60;99.90
37281;DHT22;23169;41.804;12.596;2022-12-11T11:45:47;13.70;99.90
37281;DHT22;23169;41.804;12.596;2022-12-11T11:48:34;13.80;99.90
37281;DHT22;23169;41.804;12.596;2022-12-11T11:51:05;13.80;99.90
37281;DHT22;23169;41.804;12.596;2022-12-11T11:53:34;14.20;99.90
37281;DHT22;23169;41.804;12.596;2022-12-11T12:01:35;14.20;99.90
37281;DHT22;23169;41.804;12.596;2022-12-11T12:04:05;14.40;99.90
37281;DHT22;23169;41.804;12.596;2022-12-11T12:12:11;14.20;99.90
37281;DHT22;23169;41.804;12.596;2022-12-11T12:14:53;13.90;99.90
37281;DHT22;23169;41.804;12.596;2022-12-11T12:25:24;13.60;99.90
37281;DHT22;23169;41.804;12.596;2022-12-11T12:30:20;13.70;99.90
37281;DHT22;23169;41.804;12.596;2022-12-11T12:33:03;13.50;99.90
37281;DHT22;23169;41.804;12.596;2022-12-11T12:35:35;13.50;99.90
37281;DHT22;23169;41.804;12.596;2022-12-11T12:38:18;13.50;99.90
37281;DHT22;23169;41.804;12.596;2022-12-11T12:46:24;13.70;99.90
37281;DHT22;23169;41.804;12.596;2022-12-11T12:48:52;13.80;99.90
37281;DHT22;23169;41.804;12.596;2022-12-11T12:51:20;14.00;99.90
37281;DHT22;23169;41.804;12.596;2022-12-11T12:53:54;14.00;99.90
37281;DHT22;23169;41.804;12.596;2022-12-11T12:56:23;14.20;99.90
37281;DHT22;23169;41.804;12.596;2022-12-11T12:58:52;14.10;99.90
37281;DHT22;23169;41.804;12.596;2022-12-11T13:01:23;13.70;99.90
37281;DHT22;23169;41.804;12.596;2022-12-11T13:06:38;13.40;99.90
37281;DHT22;23169;41.804;12.596;2022-12-11T13:09:11;13.40;99.90
37281;DHT22;23169;41.804;12.596;2022-12-11T13:11:39;13.50;99.90
37281;DHT22;23169;41.804;12.596;2022-12-11T13:14:20;13.60;99.90
37281;DHT22;23169;41.804;12.596;2022-12-11T13:16:49;13.50;99.90
37281;DHT22;23169;41.804;12.596;2022-12-11T13:21:58;13.60;99.90
37281;DHT22;23169;41.804;12.596;2022-12-11T13:24:29;13.70;99.90
37281;DHT22;23169;41.804;12.596;2022-12-11T13:27:07;13.60;99.90
37281;DHT22;23169;41.804;12.596;2022-12-11T13:29:39;13.50;99.90
37281;DHT22;23169;41.804;12.596;2022-12-11T13:34:42;13.40;99.90
37281;DHT22;23169;41.804;12.596;2022-12-11T13:39:58;13.40;99.90
37281;DHT22;23169;41.804;12.596;2022-12-11T13:42:27;13.40;99.90
37281;DHT22;23169;41.804;12.596;2022-12-11T13:44:56;13.30;99.90
37281;DHT22;23169;41.804;12.596;2022-12-11T13:47:23;13.20;99.90
37281;DHT22;23169;41.804;12.596;2022-12-11T13:49:58;11.30;99.90
37281;DHT22;23169;41.804;12.596;2022-12-11T13:52:29;13.20;99.90
37281;DHT22;23169;41.804;12.596;2022-12-11T13:54:57;13.20;99.90
37281;DHT22;23169;41.804;12.596;2022-12-11T13:57:25;13.20;99.90
37281;DHT22;23169;41.804;12.596;2022-12-11T13:59:55;13.10;99.90
37281;DHT22;23169;41.804;12.596;2022-12-11T14:02:31;13.10;99.90
37281;DHT22;23169;41.804;12.596;2022-12-11T14:05:04;13.00;99.90
37281;DHT22;23169;41.804;12.596;2022-12-11T14:07:34;13.10;99.90
37281;DHT22;23169;41.804;12.596;2022-12-11T14:10:04;13.00;99.90
37281;DHT22;23169;41.804;12.596;2022-12-11T14:12:33;13.10;99.90
37281;DHT22;23169;41.804;12.596;2022-12-11T14:15:00;13.10;99.90
37281;DHT22;23169;41.804;12.596;2022-12-11T14:17:29;13.10;99.90
37281;DHT22;23169;41.804;12.596;2022-12-11T14:19:58;13.10;99.90
37281;DHT22;23169;41.804;12.596;2022-12-11T14:22:27;13.00;99.90
37281;DHT22;23169;41.804;12.596;2022-12-11T14:24:55;13.00;99.90
37281;DHT22;23169;41.804;12.596;2022-12-11T14:27:24;13.00;99.90
37281;DHT22;23169;41.804;12.596;2022-12-11T14:29:53;12.90;99.90
37281;DHT22;23169;41.804;12.596;2022-12-11T14:32:26;12.80;99.90
37281;DHT22;23169;41.804;12.596;2022-12-11T14:34:57;12.90;99.90
37281;DHT22;23169;41.804;12.596;2022-12-11T14:37:24;12.80;99.90
37281;DHT22;23169;41.804;12.596;2022-12-11T14:39:59;12.80;99.90
37281;DHT22;23169;41.804;12.596;2022-12-11T14:42:38;12.80;99.90
37281;DHT22;23169;41.804;12.596;2022-12-11T14:45:08;12.70;99.90
37281;DHT22;23169;41.804;12.596;2022-12-11T14:47:41;12.70;99.90
37281;DHT22;23169;41.804;12.596;2022-12-11T14:52:43;12.70;99.90
37281;DHT22;23169;41.804;12.596;2022-12-11T14:55:14;12.50;99.90
37281;DHT22;23169;41.804;12.596;2022-12-11T14:57:46;12.50;99.90
37281;DHT22;23169;41.804;12.596;2022-12-11T15:00:24;12.50;99.90
37281;DHT22;23169;41.804;12.596;2022-12-11T15:02:56;12.50;99.90
37281;DHT22;23169;41.804;12.596;2022-12-11T15:05:23;12.40;99.90
37281;DHT22;23169;41.804;12.596;2022-12-11T15:08:37;12.40;99.90
37281;DHT22;23169;41.804;12.596;2022-12-11T15:10:41;12.30;99.90
37281;DHT22;23169;41.804;12.596;2022-12-11T15:13:09;12.30;99.90
37281;DHT22;23169;41.804;12.596;2022-12-11T15:15:46;12.30;99.90
37281;DHT22;23169;41.804;12.596;2022-12-11T15:18:21;12.20;99.90
37281;DHT22;23169;41.804;12.596;2022-12-11T15:20:52;12.20;99.90
37281;DHT22;23169;41.804;12.596;2022-12-11T15:23:20;12.10;99.90
37281;DHT22;23169;41.804;12.596;2022-12-11T15:25:57;12.10;99.90
37281;DHT22;23169;41.804;12.596;2022-12-11T15:28:35;12.10;99.90
37281;DHT22;23169;41.804;12.596;2022-12-11T15:31:07;12.00;99.90
37281;DHT22;23169;41.804;12.596;2022-12-11T15:33:48;12.00;99.90
37281;DHT22;23169;41.804;12.596;2022-12-11T15:36:23;11.90;99.90
37281;DHT22;23169;41.804;12.596;2022-12-11T15:38:51;11.80;99.90
37281;DHT22;23169;41.804;12.596;2022-12-11T15:41:19;11.80;99.90
37281;DHT22;23169;41.804;12.596;2022-12-11T15:43:53;11.70;99.90
37281;DHT22;23169;41.804;12.596;2022-12-11T15:46:22;11.70;99.90
37281;DHT22;23169;41.804;12.596;2022-12-11T15:48:50;11.70;99.90
37281;DHT22;23169;41.804;12.596;2022-12-11T15:51:17;11.70;99.90
37281;DHT22;23169;41.804;12.596;2022-12-11T15:53:45;11.70;99.90
37281;DHT22;23169;41.804;12.596;2022-12-11T15:56:13;11.60;99.90
37281;DHT22;23169;41.804;12.596;2022-12-11T15:58:44;11.60;99.90
37281;DHT22;23169;41.804;12.596;2022-12-11T16:01:13;11.60;99.90
37281;DHT22;23169;41.804;12.596;2022-12-11T16:03:40;11.60;99.90
37281;DHT22;23169;41.804;12.596;2022-12-11T16:06:09;11.50;99.90
37281;DHT22;23169;41.804;12.596;2022-12-11T16:08:38;11.50;99.90
37281;DHT22;23169;41.804;12.596;2022-12-11T16:11:05;11.50;99.90
37281;DHT22;23169;41.804;12.596;2022-12-11T16:13:33;11.50;99.90
37281;DHT22;23169;41.804;12.596;2022-12-11T16:16:00;11.40;99.90
37281;DHT22;23169;41.804;12.596;2022-12-11T16:18:28;11.40;99.90
37281;DHT22;23169;41.804;12.596;2022-12-11T16:20:55;11.30;99.90
37281;DHT22;23169;41.804;12.596;2022-12-11T16:23:23;11.30;99.90
37281;DHT22;23169;41.804;12.596;2022-12-11T16:25:50;11.20;99.90
37281;DHT22;23169;41.804;12.596;2022-12-11T16:28:18;11.20;99.90
37281;DHT22;23169;41.804;12.596;2022-12-11T16:30:47;11.20;99.90
37281;DHT22;23169;41.804;12.596;2022-12-11T16:33:16;11.20;99.90
37281;DHT22;23169;41.804;12.596;2022-12-11T16:35:45;11.20;99.90
37281;DHT22;23169;41.804;12.596;2022-12-11T16:38:13;11.10;99.90
37281;DHT22;23169;41.804;12.596;2022-12-11T16:40:41;11.10;99.90
37281;DHT22;23169;41.804;12.596;2022-12-11T16:43:09;11.10;99.90
37281;DHT22;23169;41.804;12.596;2022-12-11T16:45:38;11.20;99.90
37281;DHT22;23169;41.804;12.596;2022-12-11T16:48:05;11.20;99.90
37281;DHT22;23169;41.804;12.596;2022-12-11T16:50:34;11.30;99.90
37281;DHT22;23169;41.804;12.596;2022-12-11T16:53:02;11.30;99.90
37281;DHT22;23169;41.804;12.596;2022-12-11T16:55:30;11.40;99.90
37281;DHT22;23169;41.804;12.596;2022-12-11T16:57:57;11.40;99.90
37281;DHT22;23169;41.804;12.596;2022-12-11T17:00:25;11.40;99.90
37281;DHT22;23169;41.804;12.596;2022-12-11T17:02:52;11.40;99.90
37281;DHT22;23169;41.804;12.596;2022-12-11T17:05:19;11.30;99.90
37281;DHT22;23169;41.804;12.596;2022-12-11T17:07:50;11.30;99.90
37281;DHT22;23169;41.804;12.596;2022-12-11T17:10:17;11.30;99.90